Terminal Aerodrome Forecast
Issued by NWS

Home | Current Version | Previous Version | Text Only | Print | Product List | Glossary On
Versions: 1 2 3 4 5 6 7 8 9 10 11 12 13 14 15 16 17
000
FTUS45 KABQ 302300
TAFFMN
TAF
KFMN 302338Z 3100/3124 08009KT 4SM -SNRA BR SCT007 OVC012
      TEMPO 3100/3104 2SM -SN BR OVC003
     FM310400 10011KT 4SM -RASN SCT005 OVC010
     FM310700 09006KT 2SM -SNRA BR OVC007
     FM311600 09006KT P6SM VCSH BKN030=

USA.gov is the U.S. government's official web portal to all federal, state and local government web resources and services.